sensor_id;sensor_type;location;lat;lon;timestamp;pressure;altitude;pressure_sealevel;temperature;humidity
44839;BME280;30576;42.098;24.876;2022-08-25T00:01:33;99331.69;;;23.59;88.30
44839;BME280;30576;42.098;24.876;2022-08-25T00:04:00;99357.53;;;23.62;89.17
44839;BME280;30576;42.098;24.876;2022-08-25T00:06:26;99326.63;;;23.31;89.47
44839;BME280;30576;42.098;24.876;2022-08-25T00:08:52;99326.28;;;23.35;88.41
44839;BME280;30576;42.098;24.876;2022-08-25T00:11:23;99326.25;;;22.98;90.65
44839;BME280;30576;42.098;24.876;2022-08-25T00:13:51;99315.50;;;22.98;91.96
44839;BME280;30576;42.098;24.876;2022-08-25T00:16:19;99324.94;;;23.17;91.48
44839;BME280;30576;42.098;24.876;2022-08-25T00:18:48;99307.16;;;22.90;92.57
44839;BME280;30576;42.098;24.876;2022-08-25T00:21:14;99287.94;;;23.20;89.81
44839;BME280;30576;42.098;24.876;2022-08-25T00:23:42;99319.31;;;23.33;90.14
44839;BME280;30576;42.098;24.876;2022-08-25T00:26:08;99296.13;;;23.19;89.00
44839;BME280;30576;42.098;24.876;2022-08-25T00:28:35;99255.09;;;22.91;89.68
44839;BME280;30576;42.098;24.876;2022-08-25T00:31:02;99320.31;;;23.06;89.99
44839;BME280;30576;42.098;24.876;2022-08-25T00:33:28;99253.97;;;22.57;91.47
44839;BME280;30576;42.098;24.876;2022-08-25T00:35:56;99271.78;;;22.70;91.25
44839;BME280;30576;42.098;24.876;2022-08-25T00:38:22;99307.88;;;23.05;90.40
44839;BME280;30576;42.098;24.876;2022-08-25T00:40:48;99284.34;;;22.83;89.33
44839;BME280;30576;42.098;24.876;2022-08-25T00:43:52;99298.97;;;22.92;90.46
44839;BME280;30576;42.098;24.876;2022-08-25T00:46:20;99280.72;;;22.58;91.21
44839;BME280;30576;42.098;24.876;2022-08-25T00:48:50;99291.69;;;22.81;91.01
44839;BME280;30576;42.098;24.876;2022-08-25T00:51:21;99251.16;;;22.58;90.33
44839;BME280;30576;42.098;24.876;2022-08-25T00:53:49;99253.00;;;22.58;90.46
44839;BME280;30576;42.098;24.876;2022-08-25T00:56:16;99271.69;;;22.72;90.35
44839;BME280;30576;42.098;24.876;2022-08-25T00:58:42;99283.84;;;22.78;90.29
44839;BME280;30576;42.098;24.876;2022-08-25T01:01:08;99264.53;;;22.47;90.91
44839;BME280;30576;42.098;24.876;2022-08-25T01:03:33;99290.13;;;22.52;92.43
44839;BME280;30576;42.098;24.876;2022-08-25T01:06:01;99242.72;;;22.00;94.07
44839;BME280;30576;42.098;24.876;2022-08-25T01:08:28;99231.09;;;21.99;93.42
44839;BME280;30576;42.098;24.876;2022-08-25T01:10:58;99276.44;;;22.30;93.19
44839;BME280;30576;42.098;24.876;2022-08-25T01:13:32;99255.16;;;22.27;92.98
44839;BME280;30576;42.098;24.876;2022-08-25T01:15:58;99263.66;;;22.33;91.99
44839;BME280;30576;42.098;24.876;2022-08-25T01:18:25;99269.25;;;22.30;92.96
44839;BME280;30576;42.098;24.876;2022-08-25T01:20:57;99229.06;;;22.16;92.02
44839;BME280;30576;42.098;24.876;2022-08-25T01:23:23;99258.50;;;22.56;91.47
44839;BME280;30576;42.098;24.876;2022-08-25T01:25:57;99297.00;;;22.94;88.85
44839;BME280;30576;42.098;24.876;2022-08-25T01:28:26;99253.41;;;22.64;88.75
44839;BME280;30576;42.098;24.876;2022-08-25T01:30:52;99235.78;;;22.73;87.27
44839;BME280;30576;42.098;24.876;2022-08-25T01:33:18;99263.59;;;22.85;86.08
44839;BME280;30576;42.098;24.876;2022-08-25T01:35:44;99266.69;;;22.92;87.00
44839;BME280;30576;42.098;24.876;2022-08-25T01:38:12;99258.28;;;22.96;85.48
44839;BME280;30576;42.098;24.876;2022-08-25T01:40:39;99270.88;;;23.09;85.88
44839;BME280;30576;42.098;24.876;2022-08-25T01:45:43;99272.25;;;23.14;84.99
44839;BME280;30576;42.098;24.876;2022-08-25T01:48:11;99295.38;;;23.41;84.26
44839;BME280;30576;42.098;24.876;2022-08-25T01:50:37;99264.41;;;23.35;84.00
44839;BME280;30576;42.098;24.876;2022-08-25T01:53:07;99272.25;;;23.38;84.49
44839;BME280;30576;42.098;24.876;2022-08-25T01:55:34;99232.47;;;22.69;86.98
44839;BME280;30576;42.098;24.876;2022-08-25T01:58:33;99285.34;;;22.69;88.09
44839;BME280;30576;42.098;24.876;2022-08-25T02:01:02;99262.47;;;22.50;88.58
44839;BME280;30576;42.098;24.876;2022-08-25T02:03:28;99264.84;;;22.42;88.54
44839;BME280;30576;42.098;24.876;2022-08-25T02:05:55;99246.81;;;22.31;88.38
44839;BME280;30576;42.098;24.876;2022-08-25T02:08:21;99231.31;;;22.35;88.18
44839;BME280;30576;42.098;24.876;2022-08-25T02:10:48;99189.50;;;22.18;86.76
44839;BME280;30576;42.098;24.876;2022-08-25T02:13:14;99211.00;;;22.18;88.24
44839;BME280;30576;42.098;24.876;2022-08-25T02:15:54;99225.09;;;22.34;87.94
44839;BME280;30576;42.098;24.876;2022-08-25T02:18:20;99209.28;;;22.30;87.21
44839;BME280;30576;42.098;24.876;2022-08-25T02:20:46;99231.19;;;22.62;86.33
44839;BME280;30576;42.098;24.876;2022-08-25T02:23:12;99226.78;;;22.48;87.23
44839;BME280;30576;42.098;24.876;2022-08-25T02:25:39;99223.69;;;22.42;87.28
44839;BME280;30576;42.098;24.876;2022-08-25T02:28:06;99250.88;;;22.50;88.67
44839;BME280;30576;42.098;24.876;2022-08-25T02:30:33;99230.56;;;22.46;87.84
44839;BME280;30576;42.098;24.876;2022-08-25T02:32:58;99213.69;;;22.44;86.91
44839;BME280;30576;42.098;24.876;2022-08-25T02:35:24;99241.41;;;22.57;87.52
44839;BME280;30576;42.098;24.876;2022-08-25T02:37:50;99214.13;;;22.38;87.55
44839;BME280;30576;42.098;24.876;2022-08-25T02:40:16;99233.78;;;22.38;88.86
44839;BME280;30576;42.098;24.876;2022-08-25T02:42:42;99194.25;;;22.14;88.86
44839;BME280;30576;42.098;24.876;2022-08-25T02:45:09;99219.50;;;22.38;89.13
44839;BME280;30576;42.098;24.876;2022-08-25T02:47:35;99196.59;;;22.19;89.45
44839;BME280;30576;42.098;24.876;2022-08-25T02:50:06;99216.69;;;22.13;90.42
44839;BME280;30576;42.098;24.876;2022-08-25T02:52:31;99208.44;;;22.04;89.89
44839;BME280;30576;42.098;24.876;2022-08-25T02:54:57;99213.81;;;22.04;89.69
44839;BME280;30576;42.098;24.876;2022-08-25T02:57:22;99197.25;;;21.84;89.91
44839;BME280;30576;42.098;24.876;2022-08-25T02:59:48;99187.50;;;21.96;89.92
44839;BME280;30576;42.098;24.876;2022-08-25T03:02:14;99180.94;;;22.00;89.39
44839;BME280;30576;42.098;24.876;2022-08-25T03:04:41;99198.53;;;22.04;89.73
44839;BME280;30576;42.098;24.876;2022-08-25T03:07:06;99173.75;;;21.88;89.30
44839;BME280;30576;42.098;24.876;2022-08-25T03:09:32;99203.59;;;22.09;90.84
44839;BME280;30576;42.098;24.876;2022-08-25T03:11:57;99176.97;;;21.93;90.82
44839;BME280;30576;42.098;24.876;2022-08-25T03:14:23;99175.03;;;22.08;89.50
44839;BME280;30576;42.098;24.876;2022-08-25T03:16:49;99193.28;;;22.15;89.44
44839;BME280;30576;42.098;24.876;2022-08-25T03:19:14;99222.63;;;22.31;88.22
44839;BME280;30576;42.098;24.876;2022-08-25T03:21:41;99183.41;;;22.16;87.27
44839;BME280;30576;42.098;24.876;2022-08-25T03:24:07;99178.22;;;22.26;86.38
44839;BME280;30576;42.098;24.876;2022-08-25T03:26:32;99178.22;;;22.26;86.25
44839;BME280;30576;42.098;24.876;2022-08-25T03:29:16;99183.69;;;22.24;85.82
44839;BME280;30576;42.098;24.876;2022-08-25T03:31:42;99180.59;;;22.43;84.56
44839;BME280;30576;42.098;24.876;2022-08-25T03:37:10;99169.91;;;22.55;83.62
44839;BME280;30576;42.098;24.876;2022-08-25T03:39:36;99219.78;;;22.96;83.25
44839;BME280;30576;42.098;24.876;2022-08-25T03:42:02;99168.72;;;22.59;83.06
44839;BME280;30576;42.098;24.876;2022-08-25T03:44:28;99190.13;;;22.84;81.98
44839;BME280;30576;42.098;24.876;2022-08-25T03:46:54;99214.22;;;22.86;82.62
44839;BME280;30576;42.098;24.876;2022-08-25T03:49:21;99232.94;;;22.87;83.46
44839;BME280;30576;42.098;24.876;2022-08-25T03:51:51;99210.69;;;22.85;83.93
44839;BME280;30576;42.098;24.876;2022-08-25T03:54:21;99201.66;;;22.74;83.97
44839;BME280;30576;42.098;24.876;2022-08-25T03:56:47;99196.00;;;22.65;83.67
44839;BME280;30576;42.098;24.876;2022-08-25T03:59:12;99238.97;;;22.91;83.13
44839;BME280;30576;42.098;24.876;2022-08-25T04:01:40;99229.84;;;22.81;82.70
44839;BME280;30576;42.098;24.876;2022-08-25T04:04:07;99211.69;;;22.71;82.53
44839;BME280;30576;42.098;24.876;2022-08-25T04:06:33;99215.66;;;22.79;82.65
44839;BME280;30576;42.098;24.876;2022-08-25T04:08:59;99201.22;;;22.56;82.67
44839;BME280;30576;42.098;24.876;2022-08-25T04:11:26;99226.31;;;22.67;83.15
44839;BME280;30576;42.098;24.876;2022-08-25T04:13:54;99241.56;;;22.80;83.04
44839;BME280;30576;42.098;24.876;2022-08-25T04:16:23;99195.84;;;22.56;83.29
44839;BME280;30576;42.098;24.876;2022-08-25T04:18:50;99238.00;;;22.79;83.01
44839;BME280;30576;42.098;24.876;2022-08-25T04:21:17;99243.63;;;22.76;82.57
44839;BME280;30576;42.098;24.876;2022-08-25T04:23:44;99248.16;;;23.00;82.56
44839;BME280;30576;42.098;24.876;2022-08-25T04:26:12;99223.44;;;22.95;81.46
44839;BME280;30576;42.098;24.876;2022-08-25T04:28:38;99211.38;;;23.00;80.92
44839;BME280;30576;42.098;24.876;2022-08-25T04:31:08;99186.13;;;22.90;80.86
44839;BME280;30576;42.098;24.876;2022-08-25T04:33:38;99227.84;;;23.09;81.79
44839;BME280;30576;42.098;24.876;2022-08-25T04:36:05;99208.03;;;22.97;82.06
44839;BME280;30576;42.098;24.876;2022-08-25T04:38:31;99187.63;;;22.94;82.16
44839;BME280;30576;42.098;24.876;2022-08-25T04:41:00;99187.53;;;22.96;82.25
44839;BME280;30576;42.098;24.876;2022-08-25T04:43:26;99189.88;;;23.00;82.04
44839;BME280;30576;42.098;24.876;2022-08-25T04:45:53;99176.31;;;23.02;81.88
44839;BME280;30576;42.098;24.876;2022-08-25T04:48:21;99186.41;;;22.98;82.01
44839;BME280;30576;42.098;24.876;2022-08-25T04:50:55;99172.63;;;22.79;82.74
44839;BME280;30576;42.098;24.876;2022-08-25T04:53:20;99166.38;;;22.78;82.23
44839;BME280;30576;42.098;24.876;2022-08-25T04:55:47;99193.06;;;23.05;83.22
44839;BME280;30576;42.098;24.876;2022-08-25T04:58:14;99164.44;;;23.04;83.42
44839;BME280;30576;42.098;24.876;2022-08-25T05:00:40;99186.53;;;23.10;83.57
44839;BME280;30576;42.098;24.876;2022-08-25T05:03:06;99174.63;;;23.36;81.34
44839;BME280;30576;42.098;24.876;2022-08-25T05:05:35;99204.63;;;23.43;81.88
44839;BME280;30576;42.098;24.876;2022-08-25T05:08:02;99181.50;;;23.40;81.94
44839;BME280;30576;42.098;24.876;2022-08-25T05:10:28;99214.97;;;23.60;82.50
44839;BME280;30576;42.098;24.876;2022-08-25T05:12:53;99184.72;;;23.57;81.68
44839;BME280;30576;42.098;24.876;2022-08-25T05:15:19;99183.03;;;23.56;81.96
44839;BME280;30576;42.098;24.876;2022-08-25T05:18:03;99215.47;;;23.77;80.85
44839;BME280;30576;42.098;24.876;2022-08-25T05:20:28;99219.72;;;23.57;81.08
44839;BME280;30576;42.098;24.876;2022-08-25T05:22:55;99209.47;;;23.62;81.07
44839;BME280;30576;42.098;24.876;2022-08-25T05:25:21;99210.19;;;23.88;79.91
44839;BME280;30576;42.098;24.876;2022-08-25T05:27:47;99191.50;;;23.74;79.53
44839;BME280;30576;42.098;24.876;2022-08-25T05:30:12;99191.72;;;23.71;80.83
44839;BME280;30576;42.098;24.876;2022-08-25T05:32:38;99211.28;;;23.97;80.42
44839;BME280;30576;42.098;24.876;2022-08-25T05:35:05;99206.66;;;24.44;78.75
44839;BME280;30576;42.098;24.876;2022-08-25T05:37:31;99184.00;;;24.58;76.31
44839;BME280;30576;42.098;24.876;2022-08-25T05:39:56;99210.31;;;24.77;75.67
44839;BME280;30576;42.098;24.876;2022-08-25T05:42:22;99186.91;;;24.66;75.34
44839;BME280;30576;42.098;24.876;2022-08-25T05:44:48;99194.13;;;24.77;75.06
44839;BME280;30576;42.098;24.876;2022-08-25T05:47:13;99155.53;;;24.77;74.88
44839;BME280;30576;42.098;24.876;2022-08-25T05:49:39;99208.22;;;25.25;73.95
44839;BME280;30576;42.098;24.876;2022-08-25T05:52:04;99187.88;;;25.20;73.29
44839;BME280;30576;42.098;24.876;2022-08-25T05:54:30;99192.25;;;25.33;73.43
44839;BME280;30576;42.098;24.876;2022-08-25T05:56:56;99144.03;;;25.28;72.47
44839;BME280;30576;42.098;24.876;2022-08-25T05:59:22;99161.53;;;25.45;70.58
44839;BME280;30576;42.098;24.876;2022-08-25T06:01:48;99183.59;;;25.71;71.22
44839;BME280;30576;42.098;24.876;2022-08-25T06:04:32;99176.34;;;25.51;70.04
44839;BME280;30576;42.098;24.876;2022-08-25T06:06:59;99185.38;;;25.61;71.52
44839;BME280;30576;42.098;24.876;2022-08-25T06:09:25;99184.44;;;25.51;70.08
44839;BME280;30576;42.098;24.876;2022-08-25T06:11:53;99158.53;;;25.27;70.43
44839;BME280;30576;42.098;24.876;2022-08-25T06:14:19;99126.63;;;25.32;70.05
44839;BME280;30576;42.098;24.876;2022-08-25T06:16:45;99143.03;;;25.41;68.81
44839;BME280;30576;42.098;24.876;2022-08-25T06:19:24;99167.84;;;25.55;68.16
44839;BME280;30576;42.098;24.876;2022-08-25T06:22:07;99157.63;;;25.59;68.16
44839;BME280;30576;42.098;24.876;2022-08-25T06:24:32;99125.53;;;25.35;68.66
44839;BME280;30576;42.098;24.876;2022-08-25T06:26:59;99112.78;;;25.26;68.31
44839;BME280;30576;42.098;24.876;2022-08-25T06:29:25;99180.41;;;26.08;67.03
44839;BME280;30576;42.098;24.876;2022-08-25T06:31:52;99138.22;;;25.96;64.95
44839;BME280;30576;42.098;24.876;2022-08-25T06:34:17;99173.34;;;26.48;65.88
44839;BME280;30576;42.098;24.876;2022-08-25T06:36:44;99182.78;;;26.63;64.05
44839;BME280;30576;42.098;24.876;2022-08-25T06:39:12;99177.25;;;26.75;63.92
44839;BME280;30576;42.098;24.876;2022-08-25T06:41:38;99182.25;;;26.89;63.48
44839;BME280;30576;42.098;24.876;2022-08-25T06:44:04;99180.56;;;26.98;62.32
44839;BME280;30576;42.098;24.876;2022-08-25T06:46:29;99176.19;;;27.07;63.87
44839;BME280;30576;42.098;24.876;2022-08-25T06:48:55;99167.06;;;27.37;62.69
44839;BME280;30576;42.098;24.876;2022-08-25T06:51:23;99136.56;;;27.25;61.36
44839;BME280;30576;42.098;24.876;2022-08-25T06:53:51;99152.53;;;27.28;60.90
44839;BME280;30576;42.098;24.876;2022-08-25T06:56:19;99167.22;;;27.45;61.09
44839;BME280;30576;42.098;24.876;2022-08-25T06:58:47;99176.66;;;27.31;61.85
44839;BME280;30576;42.098;24.876;2022-08-25T07:01:18;99178.00;;;27.84;61.88
44839;BME280;30576;42.098;24.876;2022-08-25T07:03:48;99153.91;;;27.81;60.21
44839;BME280;30576;42.098;24.876;2022-08-25T07:06:15;99161.13;;;28.10;58.81
44839;BME280;30576;42.098;24.876;2022-08-25T07:08:42;99140.13;;;28.12;56.94
44839;BME280;30576;42.098;24.876;2022-08-25T07:11:09;99134.75;;;28.02;57.31
44839;BME280;30576;42.098;24.876;2022-08-25T07:13:36;99117.91;;;28.09;57.88
44839;BME280;30576;42.098;24.876;2022-08-25T07:16:03;99149.06;;;27.75;58.96
44839;BME280;30576;42.098;24.876;2022-08-25T07:18:31;99169.91;;;27.55;59.04
44839;BME280;30576;42.098;24.876;2022-08-25T07:20:57;99162.63;;;27.56;59.26
44839;BME280;30576;42.098;24.876;2022-08-25T07:23:23;99150.63;;;27.78;59.22
44839;BME280;30576;42.098;24.876;2022-08-25T07:25:50;99172.88;;;27.81;59.00
44839;BME280;30576;42.098;24.876;2022-08-25T07:28:17;99133.50;;;27.97;58.73
44839;BME280;30576;42.098;24.876;2022-08-25T07:30:42;99139.69;;;28.17;58.45
44839;BME280;30576;42.098;24.876;2022-08-25T07:33:08;99104.34;;;27.61;59.03
44839;BME280;30576;42.098;24.876;2022-08-25T07:35:34;99126.25;;;27.78;57.97
44839;BME280;30576;42.098;24.876;2022-08-25T07:38:01;99122.00;;;27.65;56.88
44839;BME280;30576;42.098;24.876;2022-08-25T07:40:30;99128.91;;;28.07;58.14
44839;BME280;30576;42.098;24.876;2022-08-25T07:42:59;99160.81;;;28.13;56.80
44839;BME280;30576;42.098;24.876;2022-08-25T07:45:29;99161.81;;;28.12;57.44
44839;BME280;30576;42.098;24.876;2022-08-25T07:48:01;99147.53;;;28.20;57.09
44839;BME280;30576;42.098;24.876;2022-08-25T07:50:28;99159.94;;;28.50;56.44
44839;BME280;30576;42.098;24.876;2022-08-25T07:52:56;99136.59;;;28.39;55.78
44839;BME280;30576;42.098;24.876;2022-08-25T07:55:24;99155.66;;;28.75;55.39
44839;BME280;30576;42.098;24.876;2022-08-25T07:57:51;99153.53;;;28.97;54.62
44839;BME280;30576;42.098;24.876;2022-08-25T08:00:16;99117.69;;;28.75;53.58
44839;BME280;30576;42.098;24.876;2022-08-25T08:02:43;99159.94;;;28.96;55.16
44839;BME280;30576;42.098;24.876;2022-08-25T08:05:10;99147.31;;;29.41;53.42
44839;BME280;30576;42.098;24.876;2022-08-25T08:07:36;99142.75;;;29.23;54.66
44839;BME280;30576;42.098;24.876;2022-08-25T08:10:04;99129.56;;;29.10;53.19
44839;BME280;30576;42.098;24.876;2022-08-25T08:12:30;99120.22;;;29.13;53.39
44839;BME280;30576;42.098;24.876;2022-08-25T08:14:57;99125.44;;;29.42;54.26
44839;BME280;30576;42.098;24.876;2022-08-25T08:17:23;99132.06;;;29.66;52.99
44839;BME280;30576;42.098;24.876;2022-08-25T08:19:48;99160.28;;;29.91;52.49
44839;BME280;30576;42.098;24.876;2022-08-25T08:22:14;99121.25;;;30.00;52.99
44839;BME280;30576;42.098;24.876;2022-08-25T08:24:42;99148.53;;;30.17;52.20
44839;BME280;30576;42.098;24.876;2022-08-25T08:27:11;99156.22;;;30.22;48.95
44839;BME280;30576;42.098;24.876;2022-08-25T08:29:38;99173.22;;;30.24;47.85
44839;BME280;30576;42.098;24.876;2022-08-25T08:32:07;99130.75;;;29.96;49.23
44839;BME280;30576;42.098;24.876;2022-08-25T08:34:33;99148.25;;;30.28;49.11
44839;BME280;30576;42.098;24.876;2022-08-25T08:36:58;99147.72;;;30.59;50.69
44839;BME280;30576;42.098;24.876;2022-08-25T08:39:25;99143.56;;;30.98;48.56
44839;BME280;30576;42.098;24.876;2022-08-25T08:42:17;99164.69;;;31.12;49.79
44839;BME280;30576;42.098;24.876;2022-08-25T08:55:39;99178.34;;;31.29;47.60
44839;BME280;30576;42.098;24.876;2022-08-25T08:58:17;99120.00;;;30.64;46.21
44839;BME280;30576;42.098;24.876;2022-08-25T09:00:49;99137.28;;;31.38;47.65
44839;BME280;30576;42.098;24.876;2022-08-25T09:06:05;99109.66;;;30.92;47.21
44839;BME280;30576;42.098;24.876;2022-08-25T09:08:32;99143.44;;;31.24;46.54
44839;BME280;30576;42.098;24.876;2022-08-25T09:11:23;99176.28;;;31.80;45.94
44839;BME280;30576;42.098;24.876;2022-08-25T09:14:04;99130.31;;;31.52;47.54
44839;BME280;30576;42.098;24.876;2022-08-25T09:16:59;99165.06;;;31.67;43.97
44839;BME280;30576;42.098;24.876;2022-08-25T09:20:13;99149.41;;;31.69;44.92
44839;BME280;30576;42.098;24.876;2022-08-25T09:23:02;99151.75;;;31.80;43.00
44839;BME280;30576;42.098;24.876;2022-08-25T09:25:44;99155.53;;;31.71;40.31
44839;BME280;30576;42.098;24.876;2022-08-25T09:28:52;99148.97;;;32.21;40.18
44839;BME280;30576;42.098;24.876;2022-08-25T09:31:25;99136.38;;;31.95;41.91
44839;BME280;30576;42.098;24.876;2022-08-25T09:33:54;99136.69;;;32.01;41.67
44839;BME280;30576;42.098;24.876;2022-08-25T09:36:21;99119.72;;;31.90;40.95
44839;BME280;30576;42.098;24.876;2022-08-25T09:38:47;99097.56;;;31.85;43.22
44839;BME280;30576;42.098;24.876;2022-08-25T09:41:16;99110.25;;;32.18;40.74
44839;BME280;30576;42.098;24.876;2022-08-25T09:43:43;99089.16;;;32.03;42.86
44839;BME280;30576;42.098;24.876;2022-08-25T09:46:25;99113.06;;;31.85;39.41
44839;BME280;30576;42.098;24.876;2022-08-25T09:49:11;99093.53;;;31.65;42.07
44839;BME280;30576;42.098;24.876;2022-08-25T09:51:38;99091.84;;;31.31;42.40
44839;BME280;30576;42.098;24.876;2022-08-25T09:54:05;99127.75;;;31.26;42.08
44839;BME280;30576;42.098;24.876;2022-08-25T09:56:53;99112.44;;;31.58;47.38
44839;BME280;30576;42.098;24.876;2022-08-25T10:01:54;99096.03;;;31.83;41.85
44839;BME280;30576;42.098;24.876;2022-08-25T10:04:32;99074.31;;;31.58;44.44
44839;BME280;30576;42.098;24.876;2022-08-25T10:07:00;99073.59;;;32.20;43.06
44839;BME280;30576;42.098;24.876;2022-08-25T10:09:58;99050.09;;;32.42;42.51
44839;BME280;30576;42.098;24.876;2022-08-25T10:13:18;99087.41;;;32.50;40.00
44839;BME280;30576;42.098;24.876;2022-08-25T10:15:44;99065.03;;;32.55;41.95
44839;BME280;30576;42.098;24.876;2022-08-25T10:18:25;99073.31;;;31.99;42.01
44839;BME280;30576;42.098;24.876;2022-08-25T10:21:13;99087.06;;;32.53;41.53
44839;BME280;30576;42.098;24.876;2022-08-25T10:23:51;99045.66;;;31.70;41.55
44839;BME280;30576;42.098;24.876;2022-08-25T10:26:57;99087.50;;;31.86;42.75
44839;BME280;30576;42.098;24.876;2022-08-25T10:32:15;99081.63;;;32.05;40.00
44839;BME280;30576;42.098;24.876;2022-08-25T10:34:50;99056.13;;;31.90;39.37
44839;BME280;30576;42.098;24.876;2022-08-25T10:43:04;99067.31;;;31.55;41.77
44839;BME280;30576;42.098;24.876;2022-08-25T10:45:40;99049.47;;;31.28;41.85
44839;BME280;30576;42.098;24.876;2022-08-25T10:48:16;99071.22;;;31.61;41.13
44839;BME280;30576;42.098;24.876;2022-08-25T10:56:26;99036.72;;;31.85;39.77
44839;BME280;30576;42.098;24.876;2022-08-25T10:59:02;99048.94;;;31.97;42.84
44839;BME280;30576;42.098;24.876;2022-08-25T11:04:23;99042.22;;;32.16;42.44
44839;BME280;30576;42.098;24.876;2022-08-25T11:06:58;99033.44;;;32.37;41.24
44839;BME280;30576;42.098;24.876;2022-08-25T11:09:29;99038.63;;;32.24;39.66
44839;BME280;30576;42.098;24.876;2022-08-25T11:12:05;99048.28;;;32.35;41.63
44839;BME280;30576;42.098;24.876;2022-08-25T11:14:36;99022.03;;;32.34;40.91
44839;BME280;30576;42.098;24.876;2022-08-25T11:17:15;99032.25;;;32.63;41.59
44839;BME280;30576;42.098;24.876;2022-08-25T11:19:48;99030.63;;;32.54;41.21
44839;BME280;30576;42.098;24.876;2022-08-25T11:22:31;99031.56;;;32.69;38.36
44839;BME280;30576;42.098;24.876;2022-08-25T11:25:16;99036.84;;;32.62;39.20
44839;BME280;30576;42.098;24.876;2022-08-25T11:28:25;99037.00;;;32.38;37.21
44839;BME280;30576;42.098;24.876;2022-08-25T11:31:00;99040.13;;;32.58;41.33
44839;BME280;30576;42.098;24.876;2022-08-25T11:33:28;99023.38;;;32.61;37.73
44839;BME280;30576;42.098;24.876;2022-08-25T11:36:01;99012.19;;;32.79;34.56
44839;BME280;30576;42.098;24.876;2022-08-25T11:39:16;99034.03;;;32.79;35.75
44839;BME280;30576;42.098;24.876;2022-08-25T11:50:24;99026.66;;;32.64;35.67
44839;BME280;30576;42.098;24.876;2022-08-25T12:00:56;99012.53;;;33.52;35.83
44839;BME280;30576;42.098;24.876;2022-08-25T12:03:50;99018.63;;;33.24;37.68
44839;BME280;30576;42.098;24.876;2022-08-25T12:11:49;99017.97;;;33.22;36.66
44839;BME280;30576;42.098;24.876;2022-08-25T12:19:25;99013.97;;;33.48;36.22
44839;BME280;30576;42.098;24.876;2022-08-25T12:21:52;98999.31;;;33.26;36.97
44839;BME280;30576;42.098;24.876;2022-08-25T12:27:17;98993.22;;;33.68;34.13
44839;BME280;30576;42.098;24.876;2022-08-25T12:30:14;98999.44;;;33.32;37.57
44839;BME280;30576;42.098;24.876;2022-08-25T12:33:03;98996.00;;;32.77;37.91
44839;BME280;30576;42.098;24.876;2022-08-25T12:36:04;98995.41;;;32.36;38.49
44839;BME280;30576;42.098;24.876;2022-08-25T12:38:36;98997.34;;;32.50;39.98
44839;BME280;30576;42.098;24.876;2022-08-25T12:41:31;98992.22;;;33.01;38.31
44839;BME280;30576;42.098;24.876;2022-08-25T12:44:31;98985.25;;;33.14;36.27
44839;BME280;30576;42.098;24.876;2022-08-25T12:49:51;98987.03;;;33.07;35.60
44839;BME280;30576;42.098;24.876;2022-08-25T12:52:22;98978.81;;;33.30;35.48
44839;BME280;30576;42.098;24.876;2022-08-25T12:54:54;98980.31;;;33.62;35.11
44839;BME280;30576;42.098;24.876;2022-08-25T13:00:12;98995.41;;;33.73;33.85
44839;BME280;30576;42.098;24.876;2022-08-25T13:10:49;98991.47;;;33.76;34.87
44839;BME280;30576;42.098;24.876;2022-08-25T13:13:46;98975.22;;;32.91;37.44
44839;BME280;30576;42.098;24.876;2022-08-25T13:16:21;98963.59;;;32.51;38.35
44839;BME280;30576;42.098;24.876;2022-08-25T13:18:47;98970.59;;;32.22;37.64
44839;BME280;30576;42.098;24.876;2022-08-25T13:21:33;98965.31;;;32.21;36.90
44839;BME280;30576;42.098;24.876;2022-08-25T13:24:01;98950.97;;;32.50;36.20
44839;BME280;30576;42.098;24.876;2022-08-25T13:26:32;98961.59;;;32.68;35.85
44839;BME280;30576;42.098;24.876;2022-08-25T13:29:12;98956.19;;;32.60;36.47
44839;BME280;30576;42.098;24.876;2022-08-25T13:34:33;98962.06;;;32.72;36.68
44839;BME280;30576;42.098;24.876;2022-08-25T13:39:50;98948.38;;;32.80;37.30
44839;BME280;30576;42.098;24.876;2022-08-25T13:42:31;98947.13;;;32.68;37.38
44839;BME280;30576;42.098;24.876;2022-08-25T13:45:29;98967.53;;;32.72;37.58
44839;BME280;30576;42.098;24.876;2022-08-25T13:47:58;98950.53;;;32.61;37.30
44839;BME280;30576;42.098;24.876;2022-08-25T13:53:04;98939.69;;;31.99;39.52
44839;BME280;30576;42.098;24.876;2022-08-25T13:55:53;98984.53;;;31.56;43.14
44839;BME280;30576;42.098;24.876;2022-08-25T13:58:45;98914.84;;;31.06;43.53
44839;BME280;30576;42.098;24.876;2022-08-25T14:01:45;98981.06;;;31.06;43.98
44839;BME280;30576;42.098;24.876;2022-08-25T14:09:50;98915.56;;;30.42;44.71
44839;BME280;30576;42.098;24.876;2022-08-25T14:12:39;98960.25;;;31.14;44.27
44839;BME280;30576;42.098;24.876;2022-08-25T14:18:26;98925.00;;;31.29;41.81
44839;BME280;30576;42.098;24.876;2022-08-25T14:20:55;98909.25;;;31.47;41.66
44839;BME280;30576;42.098;24.876;2022-08-25T14:23:28;98972.06;;;31.70;40.82
44839;BME280;30576;42.098;24.876;2022-08-25T14:26:20;98889.50;;;31.05;41.67
44839;BME280;30576;42.098;24.876;2022-08-25T14:28:54;98962.91;;;31.55;41.87
44839;BME280;30576;42.098;24.876;2022-08-25T14:34:37;98980.22;;;32.10;40.59
44839;BME280;30576;42.098;24.876;2022-08-25T14:37:15;98929.38;;;31.86;40.48
44839;BME280;30576;42.098;24.876;2022-08-25T14:39:53;98897.50;;;31.55;40.34
44839;BME280;30576;42.098;24.876;2022-08-25T14:49:07;98952.25;;;31.76;40.30
44839;BME280;30576;42.098;24.876;2022-08-25T14:51:34;98959.31;;;31.63;39.87
44839;BME280;30576;42.098;24.876;2022-08-25T14:54:13;98906.94;;;31.28;40.27
44839;BME280;30576;42.098;24.876;2022-08-25T15:10:16;98952.44;;;31.75;41.04
44839;BME280;30576;42.098;24.876;2022-08-25T15:33:43;98921.44;;;31.20;41.00
44839;BME280;30576;42.098;24.876;2022-08-25T15:36:11;98917.66;;;31.29;41.63